Cosco China — DCSL2 — position and weather

sailwx.info

Track history (hours):
 
Tides and Currents Weather Stations Pressure Air Temp Water Temp Dewpoint Dewpoint Depression Visibility Wind Speed Wind Dir Waves Ship Positions

Cosco China

Last reported at 2014-Nov-27 03:15 UTC. Time now 2014-Nov-29 03:35 UTC.
Position N 22°19' E 114°06'.

Length 334 m; draft 11.7 m.

Type: Cargo ship. MMSI: 218536000.

Date/timePositionNaut miles runAvg speedWind from/ knotsBaromVisibWave heightAir tempDewpointWater temp
2014-Nov-27 03:15N 22°19' E 114°06'1110.2
2014-Nov-27 02:13N 22°10' E 114°13'24 2.1
2014-Nov-26 14:27N 22°34' E 114°16'0 0.0
2014-Nov-26 03:32N 22°34' E 114°16'22615.7
2014-Nov-25 13:11N 23°44' E 118°10'8918.3
2014-Nov-25 08:18N 24°40' E 119°26'32518.2
2014-Nov-24 14:29N 29°21' E 122°29'1718.1
2014-Nov-24 13:33N 29°38' E 122°27'1514.9
2014-Nov-24 12:33N 29°48' E 122°14'1212.0
2014-Nov-24 11:33N 29°54' E 122°03'1 0.8
2014-Nov-24 10:33N 29°54' E 122°02'0 0.0
2014-Nov-24 06:15N 29°54' E 122°02'0 0.0
2014-Nov-24 05:21N 29°54' E 122°02'0 0.0
2014-Nov-24 04:27N 29°54' E 122°02'0 0.0
2014-Nov-24 03:09N 29°54' E 122°02'0 0.0
2014-Nov-24 02:09N 29°54' E 122°02'0 0.0
2014-Nov-24 00:27N 29°54' E 122°02'0 0.0
2014-Nov-23 22:27N 29°54' E 122°02'0 0.0
2014-Nov-23 21:33N 29°54' E 122°02'0 0.0
2014-Nov-23 20:27N 29°54' E 122°02'0 0.0
2014-Nov-23 19:03N 29°54' E 122°02'0 0.0
2014-Nov-23 18:27N 29°54' E 122°02'0 0.0
2014-Nov-23 17:27N 29°54' E 122°02'0 0.0
2014-Nov-23 16:03N 29°54' E 122°02'0 0.0
2014-Nov-23 13:33N 29°54' E 122°02'0 0.1
2014-Nov-23 11:33N 29°54' E 122°02'4 3.7
2014-Nov-23 10:33N 29°55' E 122°06'1211.5
2014-Nov-23 09:32N 29°47' E 122°16'9 8.9
2014-Nov-23 08:30N 29°45' E 122°26'4510.6
2014-Nov-23 04:13N 30°30' E 122°35'1116.8
2014-Nov-23 03:33N 30°32' E 122°22'1110.9
2014-Nov-23 02:34N 30°34' E 122°10'6 5.8
2014-Nov-23 01:29N 30°37' E 122°04'0 0.0
2014-Nov-23 00:29N 30°37' E 122°04'0 0.0
2014-Nov-22 23:26N 30°37' E 122°04'0 0.0
2014-Nov-22 22:32N 30°37' E 122°04'0 0.0
2014-Nov-22 21:26N 30°37' E 122°04'0 0.0
2014-Nov-22 20:32N 30°37' E 122°04'0 0.0
2014-Nov-22 19:32N 30°37' E 122°04'0 0.0
2014-Nov-22 18:32N 30°37' E 122°04'0 0.0
2014-Nov-22 17:32N 30°37' E 122°04'0 0.0
2014-Nov-22 16:32N 30°37' E 122°04'0 0.0
2014-Nov-22 15:32N 30°37' E 122°04'0 0.0
2014-Nov-22 14:32N 30°37' E 122°04'0 0.0
2014-Nov-22 13:32N 30°37' E 122°04'0 0.0
2014-Nov-22 10:05N 30°37' E 122°04'0 0.0
2014-Nov-22 09:05N 30°37' E 122°04'0 0.0
2014-Nov-22 08:26N 30°37' E 122°04'0 0.0
2014-Nov-22 06:20N 30°37' E 122°04'0 0.0
2014-Nov-22 05:29N 30°37' E 122°04'0 0.0
2014-Nov-22 04:26N 30°37' E 122°04'0 0.0
2014-Nov-22 03:32N 30°37' E 122°04'0 0.0
2014-Nov-22 02:32N 30°37' E 122°04'0 0.0
2014-Nov-22 01:26N 30°37' E 122°04'0 0.0
2014-Nov-22 00:33N 30°37' E 122°04'2 1.9
2014-Nov-21 23:33N 30°36' E 122°05'1211.5
2014-Nov-21 22:33N 30°33' E 122°18'9 9.3
2014-Nov-21 21:33N 30°31' E 122°29'13 9.1
2014-Nov-21 20:10N 30°28' E 122°43'10 9.0
2014-Nov-21 19:04N 30°23' E 122°53'54 8.1
2014-Nov-21 12:25N 29°30' E 122°56'26 9.2
2014-Nov-21 09:33N 29°07' E 122°39'32412.4
2014-Nov-20 07:31N 24°36' E 119°21'1414.9
2014-Nov-20 06:33N 24°28' E 119°09'1514.3
2014-Nov-20 05:29N 24°18' E 118°56'2814.3
2014-Nov-20 03:31N 23°60' E 118°32'1515.0
2014-Nov-20 02:33N 23°51' E 118°19'1515.1
2014-Nov-20 01:31N 23°41' E 118°07'2015.6
2014-Nov-20 00:15N 23°29' E 117°50'4916.3
2014-Nov-19 21:14N 22°58' E 117°08'17213.6
2014-Nov-19 08:33N 22°19' E 114°07'1 0.1
2014-Nov-18 12:32N 22°18' E 114°06'  
Track history (hours):
 
Tides and Currents Weather Stations Pressure Air Temp Water Temp Dewpoint Dewpoint Depression Visibility Wind Speed Wind Dir Waves Ship Positions

Cosco China

Last reported at 2014-Nov-27 03:15 UTC. Time now 2014-Nov-29 03:35 UTC.
Position N 22°19' E 114°06'.

Length 334 m; draft 11.7 m.

Type: Cargo ship. MMSI: 218536000.

Date/timePositionNaut miles runAvg speedWind from/ knotsBaromVisibWave heightAir tempDewpointWater temp
2014-Nov-27 03:15N 22°19' E 114°06'1110.2
2014-Nov-27 02:13N 22°10' E 114°13'24 2.1
2014-Nov-26 14:27N 22°34' E 114°16'0 0.0
2014-Nov-26 03:32N 22°34' E 114°16'22615.7
2014-Nov-25 13:11N 23°44' E 118°10'8918.3
2014-Nov-25 08:18N 24°40' E 119°26'32518.2
2014-Nov-24 14:29N 29°21' E 122°29'1718.1
2014-Nov-24 13:33N 29°38' E 122°27'1514.9
2014-Nov-24 12:33N 29°48' E 122°14'1212.0
2014-Nov-24 11:33N 29°54' E 122°03'1 0.8
2014-Nov-24 10:33N 29°54' E 122°02'0 0.0
2014-Nov-24 06:15N 29°54' E 122°02'0 0.0
2014-Nov-24 05:21N 29°54' E 122°02'0 0.0
2014-Nov-24 04:27N 29°54' E 122°02'0 0.0
2014-Nov-24 03:09N 29°54' E 122°02'0 0.0
2014-Nov-24 02:09N 29°54' E 122°02'0 0.0
2014-Nov-24 00:27N 29°54' E 122°02'0 0.0
2014-Nov-23 22:27N 29°54' E 122°02'0 0.0
2014-Nov-23 21:33N 29°54' E 122°02'0 0.0
2014-Nov-23 20:27N 29°54' E 122°02'0 0.0
2014-Nov-23 19:03N 29°54' E 122°02'0 0.0
2014-Nov-23 18:27N 29°54' E 122°02'0 0.0
2014-Nov-23 17:27N 29°54' E 122°02'0 0.0
2014-Nov-23 16:03N 29°54' E 122°02'0 0.0
2014-Nov-23 13:33N 29°54' E 122°02'0 0.1
2014-Nov-23 11:33N 29°54' E 122°02'4 3.7
2014-Nov-23 10:33N 29°55' E 122°06'1211.5
2014-Nov-23 09:32N 29°47' E 122°16'9 8.9
2014-Nov-23 08:30N 29°45' E 122°26'4510.6
2014-Nov-23 04:13N 30°30' E 122°35'1116.8
2014-Nov-23 03:33N 30°32' E 122°22'1110.9
2014-Nov-23 02:34N 30°34' E 122°10'6 5.8
2014-Nov-23 01:29N 30°37' E 122°04'0 0.0
2014-Nov-23 00:29N 30°37' E 122°04'0 0.0
2014-Nov-22 23:26N 30°37' E 122°04'0 0.0
2014-Nov-22 22:32N 30°37' E 122°04'0 0.0
2014-Nov-22 21:26N 30°37' E 122°04'0 0.0
2014-Nov-22 20:32N 30°37' E 122°04'0 0.0
2014-Nov-22 19:32N 30°37' E 122°04'0 0.0
2014-Nov-22 18:32N 30°37' E 122°04'0 0.0
2014-Nov-22 17:32N 30°37' E 122°04'0 0.0
2014-Nov-22 16:32N 30°37' E 122°04'0 0.0
2014-Nov-22 15:32N 30°37' E 122°04'0 0.0
2014-Nov-22 14:32N 30°37' E 122°04'0 0.0
2014-Nov-22 13:32N 30°37' E 122°04'0 0.0
2014-Nov-22 10:05N 30°37' E 122°04'0 0.0
2014-Nov-22 09:05N 30°37' E 122°04'0 0.0
2014-Nov-22 08:26N 30°37' E 122°04'0 0.0
2014-Nov-22 06:20N 30°37' E 122°04'0 0.0
2014-Nov-22 05:29N 30°37' E 122°04'0 0.0
2014-Nov-22 04:26N 30°37' E 122°04'0 0.0
2014-Nov-22 03:32N 30°37' E 122°04'0 0.0
2014-Nov-22 02:32N 30°37' E 122°04'0 0.0
2014-Nov-22 01:26N 30°37' E 122°04'0 0.0
2014-Nov-22 00:33N 30°37' E 122°04'2 1.9
2014-Nov-21 23:33N 30°36' E 122°05'1211.5
2014-Nov-21 22:33N 30°33' E 122°18'9 9.3
2014-Nov-21 21:33N 30°31' E 122°29'13 9.1
2014-Nov-21 20:10N 30°28' E 122°43'10 9.0
2014-Nov-21 19:04N 30°23' E 122°53'54 8.1
2014-Nov-21 12:25N 29°30' E 122°56'26 9.2
2014-Nov-21 09:33N 29°07' E 122°39'32412.4
2014-Nov-20 07:31N 24°36' E 119°21'1414.9
2014-Nov-20 06:33N 24°28' E 119°09'1514.3
2014-Nov-20 05:29N 24°18' E 118°56'2814.3
2014-Nov-20 03:31N 23°60' E 118°32'1515.0
2014-Nov-20 02:33N 23°51' E 118°19'1515.1
2014-Nov-20 01:31N 23°41' E 118°07'2015.6
2014-Nov-20 00:15N 23°29' E 117°50'4916.3
2014-Nov-19 21:14N 22°58' E 117°08'17213.6
2014-Nov-19 08:33N 22°19' E 114°07'1 0.1
2014-Nov-18 12:32N 22°18' E 114°06'  

Dump ship's entire track history